createdAt,value
2023-04-10T00:02:08.895Z,3.75
2023-04-10T00:04:35.682Z,3.74
2023-04-10T00:07:02.452Z,3.73
2023-04-10T00:09:29.719Z,3.67
2023-04-10T00:11:56.750Z,3.61
2023-04-10T00:14:24.544Z,3.51
2023-04-10T00:16:51.404Z,3.49
2023-04-10T00:19:18.171Z,3.47
2023-04-10T00:21:44.783Z,3.48
2023-04-10T00:24:11.435Z,3.45
2023-04-10T00:26:38.087Z,3.43
2023-04-10T00:29:04.902Z,3.40
2023-04-10T00:31:32.156Z,3.38
2023-04-10T00:33:58.761Z,3.31
2023-04-10T00:36:26.930Z,3.31
2023-04-10T00:38:53.840Z,3.31
2023-04-10T00:41:20.584Z,3.31
2023-04-10T00:43:47.264Z,3.28
2023-04-10T00:46:14.033Z,3.25
2023-04-10T00:48:41.386Z,3.19
2023-04-10T00:51:08.225Z,3.14
2023-04-10T00:53:34.860Z,3.08
2023-04-10T00:56:02.313Z,3.04
2023-04-10T00:58:28.944Z,2.97
2023-04-10T01:00:56.381Z,2.97
2023-04-10T01:03:24.655Z,2.91
2023-04-10T01:06:07.260Z,2.85
2023-04-10T01:08:42.944Z,2.81
2023-04-10T01:11:39.752Z,2.75
2023-04-10T01:14:22.067Z,2.74
2023-04-10T01:17:02.329Z,2.73
2023-04-10T01:20:07.218Z,2.65
2023-04-10T01:22:52.229Z,2.61
2023-04-10T01:25:43.764Z,2.56
2023-04-10T01:28:22.170Z,2.52
2023-04-10T01:30:52.531Z,2.40
2023-04-10T01:33:22.814Z,2.36
2023-04-10T01:35:52.524Z,2.38
2023-04-10T01:38:21.542Z,2.36
2023-04-10T01:40:52.637Z,2.43
2023-04-10T01:43:22.322Z,2.39
2023-04-10T01:45:51.332Z,2.36
2023-04-10T01:48:18.936Z,2.34
2023-04-10T01:50:47.234Z,2.29
2023-04-10T01:53:14.496Z,2.22
2023-04-10T01:55:42.358Z,2.15
2023-04-10T01:58:09.168Z,2.13
2023-04-10T02:00:41.319Z,2.07
2023-04-10T02:03:08.690Z,2.04
2023-04-10T02:06:03.895Z,2.02
2023-04-10T02:08:37.848Z,1.99
2023-04-10T02:11:16.232Z,1.92
2023-04-10T02:13:43.343Z,1.96
2023-04-10T02:16:13.966Z,1.98
2023-04-10T02:18:42.671Z,1.94
2023-04-10T02:21:09.519Z,1.92
2023-04-10T02:23:37.107Z,1.89
2023-04-10T02:26:08.599Z,1.88
2023-04-10T02:28:38.156Z,1.72
2023-04-10T02:31:04.985Z,1.72
2023-04-10T02:33:31.764Z,1.78
2023-04-10T02:35:58.366Z,1.75
2023-04-10T02:38:25.049Z,1.78
2023-04-10T02:40:51.713Z,1.78
2023-04-10T02:43:18.899Z,1.78
2023-04-10T02:45:45.569Z,1.73
2023-04-10T02:48:12.805Z,1.67
2023-04-10T02:50:39.792Z,1.65
2023-04-10T02:53:06.464Z,1.56
2023-04-10T02:55:33.135Z,1.53
2023-04-10T02:57:59.730Z,1.54
2023-04-10T03:00:26.800Z,1.54
2023-04-10T03:02:53.976Z,1.52
2023-04-10T03:05:20.871Z,1.47
2023-04-10T03:07:47.483Z,1.45
2023-04-10T03:10:14.216Z,1.39
2023-04-10T03:12:40.861Z,1.36
2023-04-10T03:15:08.076Z,1.36
2023-04-10T03:17:35.116Z,1.34
2023-04-10T03:20:01.695Z,1.35
2023-04-10T03:22:30.448Z,1.31
2023-04-10T03:24:57.727Z,1.30
2023-04-10T03:27:24.374Z,1.28
2023-04-10T03:29:51.007Z,1.26
2023-04-10T03:32:17.643Z,1.27
2023-04-10T03:34:44.209Z,1.21
2023-04-10T03:37:11.030Z,1.17
2023-04-10T03:39:37.676Z,1.15
2023-04-10T03:42:04.328Z,1.10
2023-04-10T03:44:31.111Z,1.07
2023-04-10T03:46:57.748Z,1.03
2023-04-10T03:49:24.414Z,1.04
2023-04-10T03:51:51.463Z,1.03
2023-04-10T03:54:18.090Z,1.03
2023-04-10T03:56:44.776Z,1.06
2023-04-10T03:59:11.362Z,1.01
2023-04-10T04:01:38.317Z,0.97
2023-04-10T04:04:06.143Z,0.93
2023-04-10T04:06:32.817Z,0.94
2023-04-10T04:08:59.418Z,0.94
2023-04-10T04:11:26.029Z,0.91
2023-04-10T04:13:53.018Z,0.86
2023-04-10T04:16:19.901Z,0.80
2023-04-10T04:18:46.515Z,0.71
2023-04-10T04:21:13.216Z,0.71
2023-04-10T04:23:39.993Z,0.69
2023-04-10T04:26:06.971Z,0.67
2023-04-10T04:28:33.610Z,0.66
2023-04-10T04:31:01.015Z,0.64
2023-04-10T04:33:27.667Z,0.73
2023-04-10T04:35:54.327Z,0.84
2023-04-10T04:38:21.116Z,0.81
2023-04-10T04:40:47.797Z,0.74
2023-04-10T04:43:14.381Z,0.70
2023-04-10T04:45:41.044Z,0.68
2023-04-10T04:48:07.714Z,0.68
2023-04-10T04:50:34.692Z,0.66
2023-04-10T04:53:01.414Z,0.64
2023-04-10T04:55:28.085Z,0.66
2023-04-10T04:57:54.741Z,0.65
2023-04-10T05:00:21.494Z,0.64
2023-04-10T05:02:48.271Z,0.63
2023-04-10T05:05:15.923Z,0.69
2023-04-10T05:07:42.545Z,0.74
2023-04-10T05:10:09.296Z,0.81
2023-04-10T05:12:36.322Z,0.86
2023-04-10T05:15:03.562Z,0.88
2023-04-10T05:17:30.357Z,0.88
2023-04-10T05:19:57.050Z,0.91
2023-04-10T05:22:23.638Z,0.96
2023-04-10T05:24:50.430Z,1.01
2023-04-10T05:27:17.823Z,1.07
2023-04-10T05:29:44.463Z,1.15
2023-04-10T05:32:11.084Z,1.20
2023-04-10T05:34:37.751Z,1.20
2023-04-10T05:37:04.337Z,1.25
2023-04-10T05:39:31.073Z,1.30
2023-04-10T05:41:58.344Z,1.32
2023-04-10T05:44:24.933Z,1.37
2023-04-10T05:46:51.680Z,1.40
2023-04-10T05:49:18.386Z,1.44
2023-04-10T05:51:45.038Z,1.49
2023-04-10T05:54:11.681Z,1.54
2023-04-10T05:56:38.428Z,1.58
2023-04-10T05:59:05.123Z,1.63
2023-04-10T06:01:31.753Z,1.69
2023-04-10T06:03:58.502Z,1.75
2023-04-10T06:06:26.334Z,1.79
2023-04-10T06:08:53.508Z,1.85
2023-04-10T06:11:21.201Z,1.91
2023-04-10T06:13:47.897Z,1.99
2023-04-10T06:16:15.623Z,2.07
2023-04-10T06:18:42.617Z,2.18
2023-04-10T06:21:09.613Z,2.26
2023-04-10T06:23:37.314Z,2.37
2023-04-10T06:26:04.154Z,2.50
2023-04-10T06:28:30.946Z,2.62
2023-04-10T06:30:57.776Z,2.69
2023-04-10T06:33:26.350Z,2.75
2023-04-10T06:35:53.140Z,2.84
2023-04-10T06:38:19.907Z,2.92
2023-04-10T06:40:46.763Z,3.03
2023-04-10T06:43:13.475Z,3.10
2023-04-10T06:45:40.484Z,3.18
2023-04-10T06:48:07.190Z,3.30
2023-04-10T06:50:33.886Z,3.44
2023-04-10T06:53:00.741Z,3.55
2023-04-10T06:55:27.404Z,3.71
2023-04-10T06:57:56.085Z,3.90
2023-04-10T07:00:23.734Z,4.10
2023-04-10T07:02:50.475Z,4.28
2023-04-10T07:05:17.735Z,4.49
2023-04-10T07:07:44.482Z,4.71
2023-04-10T07:10:11.304Z,4.97
2023-04-10T07:12:37.856Z,5.26
2023-04-10T07:15:05.068Z,5.46
2023-04-10T07:17:31.678Z,5.74
2023-04-10T07:19:58.375Z,5.93
2023-04-10T07:22:25.022Z,6.07
2023-04-10T07:24:51.643Z,6.38
2023-04-10T07:27:18.393Z,6.61
2023-04-10T07:29:44.998Z,7.03
2023-04-10T07:32:11.734Z,7.32
2023-04-10T07:34:38.446Z,7.45
2023-04-10T07:37:05.356Z,7.67
2023-04-10T07:39:32.018Z,7.99
2023-04-10T07:41:58.702Z,8.38
2023-04-10T07:44:26.713Z,8.67
2023-04-10T07:46:53.933Z,8.80
2023-04-10T07:49:20.680Z,8.93
2023-04-10T07:51:47.296Z,9.31
2023-04-10T07:54:13.909Z,9.51
2023-04-10T07:56:40.519Z,9.80
2023-04-10T07:59:07.227Z,10.11
2023-04-10T08:01:34.128Z,10.43
2023-04-10T08:04:02.881Z,10.67
2023-04-10T08:06:32.382Z,10.54
2023-04-10T08:08:59.036Z,10.55
2023-04-10T08:11:28.489Z,10.74
2023-04-10T08:14:01.568Z,10.71
2023-04-10T08:16:30.390Z,10.89
2023-04-10T08:18:58.153Z,10.90
2023-04-10T08:21:29.240Z,10.79
2023-04-10T08:23:57.706Z,10.72
2023-04-10T08:26:26.208Z,10.76
2023-04-10T08:28:54.456Z,10.78
2023-04-10T08:31:23.208Z,10.79
2023-04-10T08:33:49.962Z,10.79
2023-04-10T08:36:19.633Z,10.80
2023-04-10T08:38:47.827Z,10.96
2023-04-10T08:41:16.232Z,11.09
2023-04-10T08:43:43.895Z,11.09
2023-04-10T08:46:11.202Z,11.28
2023-04-10T08:48:52.663Z,11.36
2023-04-10T08:51:26.214Z,11.40
2023-04-10T08:53:57.032Z,11.62
2023-04-10T08:56:24.755Z,11.83
2023-04-10T08:58:52.100Z,11.91
2023-04-10T09:01:21.375Z,12.03
2023-04-10T09:03:48.838Z,11.93
2023-04-10T09:06:15.719Z,12.06
2023-04-10T09:08:42.337Z,12.03
2023-04-10T09:11:09.080Z,12.20
2023-04-10T09:13:41.410Z,12.39
2023-04-10T09:16:09.862Z,12.44
2023-04-10T09:18:51.330Z,12.56
2023-04-10T09:21:22.102Z,12.73
2023-04-10T09:23:59.534Z,12.82
2023-04-10T09:26:31.711Z,12.73
2023-04-10T09:29:06.457Z,12.74
2023-04-10T09:31:35.409Z,12.74
2023-04-10T09:34:09.109Z,12.78
2023-04-10T09:36:37.352Z,12.97
2023-04-10T09:39:08.325Z,12.94
2023-04-10T09:41:35.109Z,12.99
2023-04-10T09:44:10.674Z,13.16
2023-04-10T09:46:37.792Z,13.30
2023-04-10T09:49:07.702Z,13.36
2023-04-10T09:51:36.020Z,13.44
2023-04-10T09:54:04.297Z,13.51
2023-04-10T09:56:31.432Z,13.59
2023-04-10T09:59:00.395Z,13.61
2023-04-10T10:01:34.575Z,13.63
2023-04-10T10:04:03.853Z,13.74
2023-04-10T10:06:34.769Z,13.73
2023-04-10T10:09:05.444Z,13.81
2023-04-10T10:11:35.852Z,13.89
2023-04-10T10:14:07.643Z,14.01
2023-04-10T10:16:46.855Z,14.14
2023-04-10T10:19:22.259Z,14.24
2023-04-10T10:21:49.461Z,14.39
2023-04-10T10:24:17.186Z,14.37
2023-04-10T10:26:45.417Z,14.39
2023-04-10T10:29:15.076Z,14.59
2023-04-10T10:31:42.861Z,14.60
2023-04-10T10:34:09.830Z,14.28
2023-04-10T10:36:37.274Z,14.45
2023-04-10T10:39:11.559Z,14.53
2023-04-10T10:41:49.698Z,14.71
2023-04-10T10:44:57.582Z,14.52
2023-04-10T10:47:29.118Z,14.35
2023-04-10T10:50:03.555Z,14.57
2023-04-10T10:52:45.809Z,14.79
2023-04-10T10:55:24.809Z,14.76
2023-04-10T10:57:55.306Z,14.90
2023-04-10T11:00:24.515Z,15.14
2023-04-10T11:03:09.380Z,15.42
2023-04-10T11:05:55.391Z,15.30
2023-04-10T11:08:48.136Z,15.65
2023-04-10T11:11:23.634Z,15.14
2023-04-10T11:13:53.110Z,15.23
2023-04-10T11:16:20.494Z,15.55
2023-04-10T11:18:59.403Z,15.34
2023-04-10T11:21:36.260Z,15.32
2023-04-10T11:24:04.639Z,15.59
2023-04-10T11:26:42.890Z,15.74
2023-04-10T11:29:18.721Z,15.69
2023-04-10T11:31:56.649Z,15.99
2023-04-10T11:34:23.737Z,16.12
2023-04-10T11:36:50.673Z,16.40
2023-04-10T11:39:19.137Z,16.57
2023-04-10T11:41:53.552Z,17.01
2023-04-10T11:44:26.420Z,16.32
2023-04-10T11:46:53.942Z,16.92
2023-04-10T11:49:22.779Z,16.83
2023-04-10T11:51:51.167Z,16.92
2023-04-10T11:54:19.848Z,17.40
2023-04-10T11:56:57.114Z,17.54
2023-04-10T11:59:24.689Z,17.70
2023-04-10T12:01:54.367Z,18.27
2023-04-10T12:04:22.832Z,18.14
2023-04-10T12:06:52.079Z,18.43
2023-04-10T12:09:21.276Z,18.54
2023-04-10T12:11:53.080Z,18.72
2023-04-10T12:14:24.068Z,19.10
2023-04-10T12:16:51.694Z,19.83
2023-04-10T12:19:19.306Z,19.33
2023-04-10T12:21:46.540Z,18.65
2023-04-10T12:24:13.358Z,18.78
2023-04-10T12:26:48.378Z,18.80
2023-04-10T12:29:14.972Z,18.84
2023-04-10T12:31:41.768Z,19.37
2023-04-10T12:34:11.174Z,18.27
2023-04-10T12:36:38.177Z,18.69
2023-04-10T12:39:05.728Z,18.97
2023-04-10T12:41:34.372Z,19.12
2023-04-10T12:44:12.913Z,18.85
2023-04-10T12:46:41.450Z,19.20
2023-04-10T12:49:18.475Z,18.76
2023-04-10T12:51:50.586Z,18.03
2023-04-10T12:54:46.745Z,18.58
2023-04-10T12:57:27.201Z,19.52
2023-04-10T12:59:53.796Z,18.79
2023-04-10T13:02:21.349Z,19.90
2023-04-10T13:04:48.149Z,19.68
2023-04-10T13:07:14.767Z,20.29
2023-04-10T13:09:41.398Z,19.82
2023-04-10T13:12:08.091Z,19.93
2023-04-10T13:14:34.706Z,19.51
2023-04-10T13:17:01.303Z,18.22
2023-04-10T13:19:27.906Z,18.38
2023-04-10T13:21:54.490Z,18.57
2023-04-10T13:24:21.878Z,18.50
2023-04-10T13:26:48.500Z,17.89
2023-04-10T13:29:15.116Z,18.65
2023-04-10T13:31:41.770Z,18.66
2023-04-10T13:34:08.472Z,18.74
2023-04-10T13:36:35.173Z,18.33
2023-04-10T13:39:01.828Z,18.06
2023-04-10T13:41:28.487Z,18.18
2023-04-10T13:43:55.179Z,17.47
2023-04-10T13:46:21.975Z,16.75
2023-04-10T13:48:48.666Z,17.06
2023-04-10T13:51:15.391Z,17.55
2023-04-10T13:53:42.037Z,18.11
2023-04-10T13:56:09.196Z,17.69
2023-04-10T13:58:36.013Z,17.07
2023-04-10T14:01:02.728Z,17.89
2023-04-10T14:03:29.568Z,17.12
2023-04-10T14:05:56.331Z,17.31
2023-04-10T14:08:24.270Z,17.26
2023-04-10T14:10:51.489Z,16.55
2023-04-10T14:13:19.053Z,17.06
2023-04-10T14:15:46.172Z,17.28
2023-04-10T14:18:12.847Z,16.90
2023-04-10T14:20:42.345Z,17.16
2023-04-10T14:23:09.552Z,17.21
2023-04-10T14:25:36.197Z,17.82
2023-04-10T14:28:02.949Z,17.66
2023-04-10T14:30:31.045Z,17.51
2023-04-10T14:32:57.983Z,17.95
2023-04-10T14:35:24.909Z,18.25
2023-04-10T14:37:51.597Z,18.77
2023-04-10T14:40:18.204Z,18.80
2023-04-10T14:42:45.908Z,18.57
2023-04-10T14:45:12.546Z,18.87
2023-04-10T14:47:39.297Z,19.02
2023-04-10T14:50:06.766Z,18.18
2023-04-10T14:52:33.517Z,18.05
2023-04-10T14:55:00.131Z,18.00
2023-04-10T14:57:26.759Z,18.43
2023-04-10T14:59:53.348Z,18.57
2023-04-10T15:02:20.130Z,17.98
2023-04-10T15:04:47.043Z,17.96
2023-04-10T15:07:14.246Z,18.36
2023-04-10T15:09:41.001Z,17.24
2023-04-10T15:12:07.803Z,18.13
2023-04-10T15:14:34.554Z,17.63
2023-04-10T15:17:01.216Z,17.61
2023-04-10T15:19:28.032Z,18.00
2023-04-10T15:21:55.727Z,17.47
2023-04-10T15:24:22.520Z,17.83
2023-04-10T15:26:49.110Z,17.67
2023-04-10T15:29:15.980Z,17.14
2023-04-10T15:31:42.637Z,17.38
2023-04-10T15:34:09.327Z,16.93
2023-04-10T15:36:36.058Z,16.77
2023-04-10T15:39:06.386Z,16.22
2023-04-10T15:41:33.264Z,16.02
2023-04-10T15:44:00.203Z,16.47
2023-04-10T15:46:27.183Z,16.81
2023-04-10T15:48:53.934Z,17.08
2023-04-10T15:51:21.424Z,17.32
2023-04-10T15:53:48.044Z,17.39
2023-04-10T15:56:16.117Z,17.53
2023-04-10T15:58:42.796Z,16.95
2023-04-10T16:01:09.418Z,16.94
2023-04-10T16:03:36.398Z,17.41
2023-04-10T16:06:03.262Z,16.94
2023-04-10T16:08:30.060Z,16.92
2023-04-10T16:10:56.733Z,16.84
2023-04-10T16:13:23.364Z,16.45
2023-04-10T16:15:50.517Z,16.00
2023-04-10T16:18:17.295Z,15.81
2023-04-10T16:20:44.004Z,15.78
2023-04-10T16:23:10.633Z,15.69
2023-04-10T16:25:37.264Z,15.75
2023-04-10T16:28:06.552Z,15.66
2023-04-10T16:30:33.760Z,15.32
2023-04-10T16:33:01.018Z,15.28
2023-04-10T16:35:27.831Z,15.45
2023-04-10T16:37:54.640Z,15.47
2023-04-10T16:40:21.807Z,15.46
2023-04-10T16:42:48.410Z,15.29
2023-04-10T16:45:15.524Z,15.39
2023-04-10T16:47:44.628Z,15.40
2023-04-10T16:50:11.542Z,15.28
2023-04-10T16:52:38.267Z,15.20
2023-04-10T16:55:05.370Z,15.10
2023-04-10T16:57:33.577Z,15.20
2023-04-10T17:00:00.485Z,15.37
2023-04-10T17:02:28.416Z,15.26
2023-04-10T17:04:55.968Z,15.13
2023-04-10T17:07:23.744Z,15.17
2023-04-10T17:09:50.681Z,15.12
2023-04-10T17:12:17.438Z,14.89
2023-04-10T17:14:44.536Z,14.75
2023-04-10T17:17:11.415Z,14.72
2023-04-10T17:19:38.636Z,14.63
2023-04-10T17:22:06.241Z,14.63
2023-04-10T17:24:32.836Z,14.53
2023-04-10T17:27:01.025Z,14.43
2023-04-10T17:29:27.617Z,14.41
2023-04-10T17:31:54.215Z,14.37
2023-04-10T17:34:20.862Z,14.30
2023-04-10T17:36:49.312Z,14.26
2023-04-10T17:39:16.016Z,14.14
2023-04-10T17:41:42.621Z,14.17
2023-04-10T17:44:10.573Z,14.14
2023-04-10T17:46:37.223Z,14.12
2023-04-10T17:49:04.391Z,14.02
2023-04-10T17:51:31.746Z,13.97
2023-04-10T17:53:58.768Z,13.91
2023-04-10T17:56:26.221Z,13.90
2023-04-10T17:58:54.766Z,13.90
2023-04-10T18:58:59.090Z,13.13
2023-04-10T19:01:26.078Z,13.14
2023-04-10T19:03:54.990Z,13.12
2023-04-10T19:06:24.747Z,13.16
2023-04-10T19:08:51.492Z,13.28
2023-04-10T19:11:18.714Z,13.15
2023-04-10T19:13:45.596Z,13.11
2023-04-10T19:16:19.324Z,13.15
2023-04-10T19:18:47.427Z,13.13
2023-04-10T19:21:14.364Z,13.11
2023-04-10T19:23:41.363Z,13.09
2023-04-10T19:26:09.785Z,13.19
2023-04-10T19:28:36.505Z,13.11
2023-04-10T19:31:03.424Z,13.01
2023-04-10T19:33:30.368Z,13.12
2023-04-10T19:35:58.240Z,13.18
2023-04-10T19:38:25.021Z,13.07
2023-04-10T19:40:51.780Z,13.10
2023-04-10T19:43:18.415Z,13.04
2023-04-10T19:45:45.300Z,13.07
2023-04-10T19:48:12.306Z,13.10
2023-04-10T19:50:38.900Z,13.06
2023-04-10T19:53:05.734Z,13.05
2023-04-10T19:55:32.383Z,13.10
2023-04-10T19:57:59.031Z,12.91
2023-04-10T20:00:25.680Z,12.91
2023-04-10T20:02:52.768Z,12.91
2023-04-10T20:05:19.851Z,12.98
2023-04-10T20:07:46.857Z,12.99
2023-04-10T20:10:13.477Z,13.08
2023-04-10T20:12:40.110Z,13.02
2023-04-10T20:15:07.471Z,12.92
2023-04-10T20:17:34.308Z,12.87
2023-04-10T20:20:00.895Z,12.86
2023-04-10T20:22:27.517Z,12.82
2023-04-10T20:24:54.241Z,12.81
2023-04-10T20:27:20.916Z,12.78
2023-04-10T20:29:47.573Z,12.86
2023-04-10T20:32:14.188Z,12.79
2023-04-10T20:34:40.852Z,12.78
2023-04-10T20:37:07.531Z,12.76
2023-04-10T20:39:34.198Z,12.76
2023-04-10T20:42:01.391Z,12.75
2023-04-10T20:44:28.155Z,12.68
2023-04-10T20:46:54.856Z,12.75
2023-04-10T20:49:22.806Z,12.69
2023-04-10T20:51:49.473Z,12.67
2023-04-10T20:54:19.029Z,12.62
2023-04-10T20:56:46.614Z,12.63
2023-04-10T20:59:13.440Z,12.58
2023-04-10T21:01:40.346Z,12.61
2023-04-10T21:04:07.206Z,12.58
2023-04-10T21:06:33.957Z,12.61
2023-04-10T21:09:00.788Z,12.52
2023-04-10T21:11:27.647Z,12.47
2023-04-10T21:13:54.506Z,12.50
2023-04-10T21:16:21.261Z,12.47
2023-04-10T21:18:48.019Z,12.45
2023-04-10T21:21:14.915Z,12.44
2023-04-10T21:23:41.537Z,12.36
2023-04-10T21:26:08.315Z,12.39
2023-04-10T21:28:34.936Z,12.37
2023-04-10T21:31:01.683Z,12.40
2023-04-10T21:33:28.373Z,12.34
2023-04-10T21:35:55.649Z,12.34
2023-04-10T21:38:23.501Z,12.25
2023-04-10T21:40:54.098Z,12.27
2023-04-10T21:43:21.466Z,12.24
2023-04-10T21:45:48.503Z,12.20
2023-04-10T21:48:15.415Z,12.20
2023-04-10T21:50:42.390Z,12.16
2023-04-10T21:53:09.236Z,12.11
2023-04-10T21:55:35.946Z,12.10
2023-04-10T21:58:02.632Z,12.13
2023-04-10T22:00:29.414Z,12.08
2023-04-10T22:02:56.215Z,12.17
2023-04-10T22:05:24.462Z,12.07
2023-04-10T22:07:52.161Z,12.02
2023-04-10T22:10:19.011Z,12.00
2023-04-10T22:12:48.588Z,11.96
2023-04-10T22:15:15.628Z,12.04
2023-04-10T22:17:42.291Z,11.99
2023-04-10T22:20:09.426Z,12.00
2023-04-10T22:22:36.051Z,11.93
2023-04-10T22:25:02.892Z,11.98
2023-04-10T22:27:29.575Z,11.95
2023-04-10T22:30:03.197Z,11.93
2023-04-10T22:32:31.183Z,11.91
2023-04-10T22:34:59.391Z,11.90
2023-04-10T22:37:26.650Z,11.92
2023-04-10T22:39:53.529Z,11.88
2023-04-10T22:42:20.224Z,11.93
2023-04-10T22:44:46.833Z,11.92
2023-04-10T22:47:13.410Z,11.93
2023-04-10T22:49:40.119Z,11.89
2023-04-10T22:52:07.779Z,11.85
2023-04-10T22:54:34.399Z,11.79
2023-04-10T22:57:01.003Z,11.80
2023-04-10T22:59:27.682Z,11.80
2023-04-10T23:01:54.396Z,11.80
2023-04-10T23:04:21.399Z,11.77
2023-04-10T23:06:48.164Z,11.68
2023-04-10T23:09:14.786Z,11.60
2023-04-10T23:11:41.489Z,11.60
2023-04-10T23:14:08.131Z,11.50
2023-04-10T23:16:34.837Z,11.42
2023-04-10T23:19:01.600Z,11.28
2023-04-10T23:21:28.352Z,11.31
2023-04-10T23:23:55.010Z,11.30
2023-04-10T23:26:21.624Z,11.23
2023-04-10T23:28:48.441Z,11.18
2023-04-10T23:31:15.839Z,11.04
2023-04-10T23:33:42.473Z,10.93
2023-04-10T23:36:09.482Z,10.88
2023-04-10T23:38:36.153Z,10.81
2023-04-10T23:41:03.132Z,10.64
2023-04-10T23:43:29.877Z,10.55
2023-04-10T23:45:56.481Z,10.45
2023-04-10T23:48:23.170Z,10.35
2023-04-10T23:50:49.820Z,10.21
2023-04-10T23:53:16.701Z,10.00
2023-04-10T23:55:43.504Z,10.01
2023-04-10T23:58:10.584Z,9.96
